DLH6VN EDDN-EDDF
Flight info
| Callsign | DLH6VN |
|---|---|
| Flight time | 0h 35m |
| Altitude | 18000 |
| Route | SUKAD1G SUKAD DCT PIWAW T159 SPESA SPESA5B |
| Aircraft | A320/M-SDE3FGHIRWY/LB1 |
Departure
| Time | 2026-05-06 15:18 |
|---|---|
| Airport | Nuremberg Airport (EDDN) |
Arrival
| Time | 2026-05-06 15:54 |
|---|---|
| Airport | Frankfurt Main Airport (EDDF) |
| Time | Latitude | Longitude | Altitude | Speed | Heading |
|---|---|---|---|---|---|
| 2026-05-06 14:55 | 49.49619 | 11.07861 | 1028 ft | 0 kts | 188° |
| 2026-05-06 14:57 | 49.49620 | 11.07861 | 1028 ft | 0 kts | 188° |
| 2026-05-06 15:13 | 49.49595 | 11.07849 | 1024 ft | 8 kts | 214° |
| 2026-05-06 15:13 | 49.49585 | 11.07769 | 1025 ft | 8 kts | 277° |
| 2026-05-06 15:14 | 49.49599 | 11.07633 | 1026 ft | 21 kts | 278° |
| 2026-05-06 15:14 | 49.49621 | 11.07395 | 1025 ft | 22 kts | 278° |
| 2026-05-06 15:14 | 49.49661 | 11.07229 | 1024 ft | 14 kts | 339° |
| 2026-05-06 15:14 | 49.49741 | 11.07137 | 1022 ft | 18 kts | 276° |
| 2026-05-06 15:15 | 49.49760 | 11.06957 | 1020 ft | 20 kts | 277° |
| 2026-05-06 15:15 | 49.49787 | 11.06707 | 1020 ft | 25 kts | 278° |
| 2026-05-06 15:15 | 49.49811 | 11.06439 | 1019 ft | 26 kts | 279° |
| 2026-05-06 15:15 | 49.49840 | 11.06155 | 1019 ft | 27 kts | 278° |
| 2026-05-06 15:16 | 49.49912 | 11.05963 | 1023 ft | 17 kts | 340° |
| 2026-05-06 15:16 | 49.49944 | 11.05944 | 1024 ft | 0 kts | 339° |
| 2026-05-06 15:16 | 49.49970 | 11.05931 | 1025 ft | 14 kts | 347° |
| 2026-05-06 15:17 | 49.50044 | 11.05997 | 1028 ft | 12 kts | 71° |
| 2026-05-06 15:17 | 49.50043 | 11.06043 | 1026 ft | 0 kts | 98° |
| 2026-05-06 15:18 | 49.50026 | 11.06199 | 1024 ft | 51 kts | 99° |
| 2026-05-06 15:18 | 49.49927 | 11.07196 | 1022 ft | 134 kts | 98° |
| 2026-05-06 15:18 | 49.49755 | 11.08922 | 1179 ft | 184 kts | 99° |
| 2026-05-06 15:18 | 49.49525 | 11.10965 | 1910 ft | 199 kts | 99° |
| 2026-05-06 15:19 | 49.49316 | 11.13031 | 2758 ft | 198 kts | 98° |
| 2026-05-06 15:19 | 49.49104 | 11.15238 | 3095 ft | 220 kts | 99° |
| 2026-05-06 15:19 | 49.48872 | 11.17665 | 3438 ft | 241 kts | 99° |
| 2026-05-06 15:19 | 49.48613 | 11.20338 | 3887 ft | 263 kts | 100° |
| 2026-05-06 15:20 | 49.48161 | 11.23106 | 4695 ft | 270 kts | 119° |
| 2026-05-06 15:20 | 49.46870 | 11.25153 | 5571 ft | 270 kts | 154° |
| 2026-05-06 15:20 | 49.45055 | 11.25845 | 6381 ft | 273 kts | 178° |
| 2026-05-06 15:20 | 49.43171 | 11.25699 | 6660 ft | 271 kts | 188° |
| 2026-05-06 15:21 | 49.41316 | 11.25237 | 6750 ft | 270 kts | 191° |
| 2026-05-06 15:21 | 49.39470 | 11.24736 | 6771 ft | 269 kts | 190° |
| 2026-05-06 15:21 | 49.37618 | 11.24297 | 6814 ft | 271 kts | 188° |
| 2026-05-06 15:21 | 49.35737 | 11.23939 | 7662 ft | 272 kts | 187° |
| 2026-05-06 15:22 | 49.33888 | 11.23419 | 8682 ft | 270 kts | 200° |
| 2026-05-06 15:22 | 49.32226 | 11.22098 | 9680 ft | 269 kts | 217° |
| 2026-05-06 15:22 | 49.30880 | 11.20034 | 10255 ft | 286 kts | 233° |
| 2026-05-06 15:22 | 49.30008 | 11.17156 | 10544 ft | 313 kts | 252° |
| 2026-05-06 15:23 | 49.29461 | 11.13799 | 10767 ft | 336 kts | 254° |
| 2026-05-06 15:23 | 49.28882 | 11.10205 | 10931 ft | 359 kts | 254° |
| 2026-05-06 15:23 | 49.28268 | 11.06402 | 11279 ft | 373 kts | 254° |
| 2026-05-06 15:23 | 49.27637 | 11.02518 | 11907 ft | 378 kts | 254° |
| 2026-05-06 15:24 | 49.26994 | 10.98599 | 12603 ft | 381 kts | 254° |
| 2026-05-06 15:24 | 49.26532 | 10.94599 | 13252 ft | 387 kts | 265° |
| 2026-05-06 15:24 | 49.26749 | 10.90461 | 13857 ft | 395 kts | 279° |
| 2026-05-06 15:24 | 49.27712 | 10.86485 | 14416 ft | 404 kts | 295° |
| 2026-05-06 15:25 | 49.29366 | 10.83032 | 14936 ft | 413 kts | 310° |
| 2026-05-06 15:25 | 49.31364 | 10.79838 | 15472 ft | 417 kts | 311° |
| 2026-05-06 15:25 | 49.33380 | 10.76625 | 15999 ft | 420 kts | 310° |
| 2026-05-06 15:25 | 49.35409 | 10.73380 | 16528 ft | 423 kts | 311° |
| 2026-05-06 15:26 | 49.37452 | 10.70097 | 17026 ft | 427 kts | 311° |
| 2026-05-06 15:26 | 49.39508 | 10.66788 | 17539 ft | 430 kts | 311° |
| 2026-05-06 15:26 | 49.41576 | 10.63450 | 17766 ft | 432 kts | 311° |
| 2026-05-06 15:26 | 49.43830 | 10.60333 | 17804 ft | 441 kts | 320° |
| 2026-05-06 15:27 | 49.46424 | 10.57776 | 17795 ft | 445 kts | 330° |
| 2026-05-06 15:27 | 49.49280 | 10.55880 | 17793 ft | 448 kts | 339° |
| 2026-05-06 15:27 | 49.52160 | 10.54113 | 17792 ft | 445 kts | 331° |
| 2026-05-06 15:27 | 49.54778 | 10.51620 | 17793 ft | 442 kts | 321° |
| 2026-05-06 15:28 | 49.57067 | 10.48489 | 17793 ft | 439 kts | 311° |
| 2026-05-06 15:28 | 49.58990 | 10.44869 | 17793 ft | 436 kts | 303° |
| 2026-05-06 15:28 | 49.60747 | 10.41056 | 17792 ft | 436 kts | 303° |
| 2026-05-06 15:28 | 49.62508 | 10.37258 | 17802 ft | 436 kts | 303° |
| 2026-05-06 15:29 | 49.64278 | 10.33455 | 17785 ft | 436 kts | 303° |
| 2026-05-06 15:29 | 49.66049 | 10.29650 | 17766 ft | 437 kts | 303° |
| 2026-05-06 15:29 | 49.67818 | 10.25836 | 17765 ft | 437 kts | 303° |
| 2026-05-06 15:29 | 49.69579 | 10.22018 | 17766 ft | 437 kts | 303° |
| 2026-05-06 15:30 | 49.71340 | 10.18183 | 17765 ft | 437 kts | 303° |
| 2026-05-06 15:30 | 49.73099 | 10.14349 | 17773 ft | 438 kts | 303° |
| 2026-05-06 15:30 | 49.74833 | 10.10565 | 17776 ft | 438 kts | 303° |
| 2026-05-06 15:30 | 49.76593 | 10.06716 | 17783 ft | 438 kts | 303° |
| 2026-05-06 15:31 | 49.78344 | 10.02889 | 17785 ft | 438 kts | 303° |
| 2026-05-06 15:31 | 49.80102 | 9.99038 | 17797 ft | 438 kts | 303° |
| 2026-05-06 15:31 | 49.81861 | 9.95185 | 17786 ft | 438 kts | 303° |
| 2026-05-06 15:32 | 49.85372 | 9.87483 | 17780 ft | 438 kts | 303° |
| 2026-05-06 15:32 | 49.87129 | 9.83618 | 17781 ft | 438 kts | 303° |
| 2026-05-06 15:32 | 49.88795 | 9.79680 | 17780 ft | 437 kts | 297° |
| 2026-05-06 15:32 | 49.90075 | 9.75426 | 17780 ft | 435 kts | 290° |
| 2026-05-06 15:33 | 49.91199 | 9.71114 | 17776 ft | 429 kts | 290° |
| 2026-05-06 15:33 | 49.92092 | 9.66737 | 17781 ft | 422 kts | 279° |
| 2026-05-06 15:33 | 49.92387 | 9.62322 | 17705 ft | 401 kts | 268° |
| 2026-05-06 15:33 | 49.92116 | 9.58130 | 17573 ft | 382 kts | 256° |
| 2026-05-06 15:34 | 49.91362 | 9.54286 | 17434 ft | 365 kts | 246° |
| 2026-05-06 15:34 | 49.90404 | 9.50719 | 17310 ft | 352 kts | 246° |
| 2026-05-06 15:34 | 49.89491 | 9.47280 | 17175 ft | 339 kts | 246° |
| 2026-05-06 15:34 | 49.88616 | 9.43945 | 17040 ft | 327 kts | 246° |
| 2026-05-06 15:35 | 49.87778 | 9.40724 | 16911 ft | 317 kts | 248° |
| 2026-05-06 15:35 | 49.87185 | 9.37479 | 16676 ft | 311 kts | 258° |
| 2026-05-06 15:35 | 49.86964 | 9.34195 | 16329 ft | 311 kts | 268° |
| 2026-05-06 15:35 | 49.87113 | 9.30863 | 15993 ft | 310 kts | 277° |
| 2026-05-06 15:36 | 49.87621 | 9.27606 | 15649 ft | 310 kts | 285° |
| 2026-05-06 15:36 | 49.88238 | 9.24413 | 15323 ft | 309 kts | 284° |
| 2026-05-06 15:36 | 49.88844 | 9.21233 | 14993 ft | 307 kts | 284° |
| 2026-05-06 15:36 | 49.89446 | 9.18069 | 14683 ft | 305 kts | 284° |
| 2026-05-06 15:37 | 49.90040 | 9.14948 | 14163 ft | 301 kts | 284° |
| 2026-05-06 15:37 | 49.90630 | 9.11840 | 13563 ft | 299 kts | 284° |
| 2026-05-06 15:37 | 49.91213 | 9.08765 | 12921 ft | 295 kts | 284° |
| 2026-05-06 15:37 | 49.91787 | 9.05733 | 12348 ft | 291 kts | 284° |
| 2026-05-06 15:38 | 49.92357 | 9.02732 | 11963 ft | 287 kts | 284° |
| 2026-05-06 15:38 | 49.92914 | 8.99773 | 11385 ft | 286 kts | 284° |
| 2026-05-06 15:38 | 49.93470 | 8.96794 | 11093 ft | 287 kts | 284° |
| 2026-05-06 15:38 | 49.94025 | 8.93832 | 10860 ft | 286 kts | 284° |
| 2026-05-06 15:39 | 49.94760 | 8.90983 | 10528 ft | 286 kts | 302° |
| 2026-05-06 15:39 | 49.96169 | 8.88813 | 10185 ft | 289 kts | 326° |
| 2026-05-06 15:39 | 49.98036 | 8.87741 | 9910 ft | 287 kts | 349° |
| 2026-05-06 15:39 | 50.00044 | 8.87939 | 9380 ft | 295 kts | 16° |
| 2026-05-06 15:40 | 50.01819 | 8.89441 | 9001 ft | 296 kts | 42° |
| 2026-05-06 15:40 | 50.03029 | 8.91990 | 8598 ft | 295 kts | 68° |
| 2026-05-06 15:40 | 50.03717 | 8.94991 | 8136 ft | 295 kts | 72° |
| 2026-05-06 15:40 | 50.04401 | 8.97989 | 7754 ft | 293 kts | 71° |
| 2026-05-06 15:41 | 50.05098 | 9.00963 | 7368 ft | 292 kts | 71° |
| 2026-05-06 15:41 | 50.05796 | 9.03902 | 7123 ft | 284 kts | 70° |
| 2026-05-06 15:41 | 50.06468 | 9.06731 | 7000 ft | 273 kts | 71° |
| 2026-05-06 15:41 | 50.07110 | 9.09448 | 6864 ft | 262 kts | 71° |
| 2026-05-06 15:42 | 50.07728 | 9.12077 | 6443 ft | 256 kts | 71° |
| 2026-05-06 15:42 | 50.08336 | 9.14675 | 5952 ft | 255 kts | 71° |
| 2026-05-06 15:42 | 50.08933 | 9.17244 | 5439 ft | 251 kts | 71° |
| 2026-05-06 15:42 | 50.09528 | 9.19813 | 5063 ft | 251 kts | 71° |
| 2026-05-06 15:43 | 50.10116 | 9.22353 | 4998 ft | 249 kts | 71° |
| 2026-05-06 15:43 | 50.10868 | 9.24785 | 5001 ft | 252 kts | 50° |
| 2026-05-06 15:43 | 50.12252 | 9.26398 | 5004 ft | 250 kts | 18° |
| 2026-05-06 15:43 | 50.13939 | 9.26733 | 5002 ft | 245 kts | 353° |
| 2026-05-06 15:44 | 50.15612 | 9.26297 | 4998 ft | 242 kts | 338° |
| 2026-05-06 15:44 | 50.17109 | 9.25252 | 4997 ft | 238 kts | 324° |
| 2026-05-06 15:44 | 50.18444 | 9.23749 | 5000 ft | 236 kts | 313° |
| 2026-05-06 15:44 | 50.19464 | 9.21784 | 5000 ft | 233 kts | 301° |
| 2026-05-06 15:45 | 50.20348 | 9.19680 | 5009 ft | 230 kts | 293° |
| 2026-05-06 15:45 | 50.20659 | 9.17311 | 5007 ft | 223 kts | 261° |
| 2026-05-06 15:45 | 50.20285 | 9.14978 | 5005 ft | 222 kts | 249° |
| 2026-05-06 15:45 | 50.19702 | 9.12753 | 5000 ft | 222 kts | 243° |
| 2026-05-06 15:46 | 50.18996 | 9.10615 | 4998 ft | 222 kts | 241° |
| 2026-05-06 15:46 | 50.18267 | 9.08487 | 5001 ft | 223 kts | 241° |
| 2026-05-06 15:46 | 50.17531 | 9.06360 | 5003 ft | 222 kts | 239° |
| 2026-05-06 15:46 | 50.16735 | 9.04314 | 5005 ft | 221 kts | 242° |
| 2026-05-06 15:47 | 50.16103 | 9.02122 | 5012 ft | 222 kts | 247° |
| 2026-05-06 15:47 | 50.15560 | 8.99862 | 5013 ft | 222 kts | 249° |
| 2026-05-06 15:47 | 50.15035 | 8.97608 | 5012 ft | 222 kts | 249° |
| 2026-05-06 15:47 | 50.14506 | 8.95344 | 5016 ft | 222 kts | 249° |
| 2026-05-06 15:48 | 50.13978 | 8.93086 | 5016 ft | 222 kts | 248° |
| 2026-05-06 15:48 | 50.13445 | 8.90818 | 5017 ft | 223 kts | 249° |
| 2026-05-06 15:48 | 50.12912 | 8.88543 | 5018 ft | 223 kts | 248° |
| 2026-05-06 15:48 | 50.12378 | 8.86274 | 4973 ft | 224 kts | 249° |
| 2026-05-06 15:49 | 50.11852 | 8.84040 | 4754 ft | 222 kts | 249° |
| 2026-05-06 15:49 | 50.11317 | 8.81767 | 4447 ft | 220 kts | 249° |
| 2026-05-06 15:49 | 50.10792 | 8.79540 | 4148 ft | 218 kts | 249° |
| 2026-05-06 15:49 | 50.10269 | 8.77327 | 3842 ft | 216 kts | 249° |
| 2026-05-06 15:50 | 50.09761 | 8.75175 | 3528 ft | 207 kts | 250° |
| 2026-05-06 15:50 | 50.09285 | 8.73163 | 3244 ft | 189 kts | 251° |
| 2026-05-06 15:50 | 50.08847 | 8.71314 | 2987 ft | 176 kts | 250° |
| 2026-05-06 15:50 | 50.08439 | 8.69593 | 2788 ft | 166 kts | 250° |
| 2026-05-06 15:51 | 50.08043 | 8.67919 | 2523 ft | 166 kts | 250° |
| 2026-05-06 15:51 | 50.07636 | 8.66204 | 2298 ft | 167 kts | 251° |
| 2026-05-06 15:51 | 50.07249 | 8.64575 | 2039 ft | 157 kts | 251° |
| 2026-05-06 15:51 | 50.06890 | 8.63065 | 1793 ft | 143 kts | 252° |
| 2026-05-06 15:52 | 50.06545 | 8.61614 | 1622 ft | 142 kts | 253° |
| 2026-05-06 15:52 | 50.06206 | 8.60190 | 1412 ft | 138 kts | 252° |
| 2026-05-06 15:52 | 50.05877 | 8.58808 | 1209 ft | 134 kts | 251° |
| 2026-05-06 15:52 | 50.05554 | 8.57454 | 1006 ft | 135 kts | 250° |
| 2026-05-06 15:53 | 50.05232 | 8.56098 | 772 ft | 134 kts | 251° |
| 2026-05-06 15:53 | 50.04911 | 8.54747 | 584 ft | 132 kts | 251° |
| 2026-05-06 15:53 | 50.04593 | 8.53421 | 401 ft | 129 kts | 251° |
| 2026-05-06 15:53 | 50.04293 | 8.52159 | 351 ft | 110 kts | 249° |
| 2026-05-06 15:54 | 50.04083 | 8.51287 | 352 ft | 69 kts | 248° |
| 2026-05-06 15:54 | 50.03851 | 8.50850 | 353 ft | 27 kts | 210° |
| 2026-05-06 15:54 | 50.03787 | 8.50955 | 350 ft | 17 kts | 67° |
| 2026-05-06 15:54 | 50.03851 | 8.51219 | 345 ft | 26 kts | 70° |
| 2026-05-06 15:55 | 50.03912 | 8.51480 | 353 ft | 25 kts | 70° |
| 2026-05-06 15:55 | 50.03969 | 8.51726 | 354 ft | 24 kts | 69° |
| 2026-05-06 15:55 | 50.04026 | 8.51956 | 351 ft | 22 kts | 69° |
| 2026-05-06 15:55 | 50.04079 | 8.52167 | 351 ft | 20 kts | 69° |
| 2026-05-06 15:56 | 50.04134 | 8.52396 | 350 ft | 29 kts | 69° |
| 2026-05-06 15:56 | 50.04204 | 8.52699 | 351 ft | 31 kts | 70° |
| 2026-05-06 15:56 | 50.04281 | 8.53008 | 347 ft | 28 kts | 69° |
| 2026-05-06 15:56 | 50.04347 | 8.53289 | 354 ft | 28 kts | 70° |
| 2026-05-06 15:57 | 50.04401 | 8.53571 | 350 ft | 27 kts | 84° |
| 2026-05-06 15:57 | 50.04421 | 8.53870 | 346 ft | 28 kts | 83° |
| 2026-05-06 15:57 | 50.04439 | 8.54158 | 346 ft | 27 kts | 85° |
| 2026-05-06 15:57 | 50.04452 | 8.54446 | 346 ft | 27 kts | 93° |
| 2026-05-06 15:58 | 50.04367 | 8.54711 | 350 ft | 30 kts | 137° |
| 2026-05-06 15:58 | 50.04184 | 8.54844 | 351 ft | 27 kts | 159° |
| 2026-05-06 15:58 | 50.04030 | 8.54945 | 353 ft | 23 kts | 136° |
| 2026-05-06 15:58 | 50.04049 | 8.55148 | 347 ft | 19 kts | 71° |
| 2026-05-06 15:59 | 50.04104 | 8.55373 | 353 ft | 29 kts | 71° |
| 2026-05-06 15:59 | 50.04176 | 8.55675 | 354 ft | 29 kts | 69° |
| 2026-05-06 15:59 | 50.04249 | 8.55982 | 348 ft | 31 kts | 70° |
| 2026-05-06 15:59 | 50.04326 | 8.56302 | 349 ft | 32 kts | 69° |
| 2026-05-06 16:00 | 50.04402 | 8.56620 | 353 ft | 25 kts | 69° |
| 2026-05-06 16:00 | 50.04428 | 8.56731 | 351 ft | 0 kts | 69° |
| 2026-05-06 16:01 | 50.04429 | 8.56735 | 352 ft | 4 kts | 69° |
| 2026-05-06 16:01 | 50.04499 | 8.56871 | 347 ft | 20 kts | 21° |
| 2026-05-06 16:01 | 50.04640 | 8.56928 | 347 ft | 22 kts | 20° |
| 2026-05-06 16:01 | 50.04755 | 8.57002 | 354 ft | 14 kts | 8° |
| 2026-05-06 16:02 | 50.04799 | 8.56925 | 350 ft | 0 kts | 295° |